Time,TemperatureF,DewpointF,PressureIn,WindDirection,WindDirectionDegrees,WindSpeedMPH,WindSpeedGustMPH,Humidity,HourlyPrecipIn,Conditions,Clouds,dailyrainin,SoftwareType,DateUTC
2013-06-04 00:06:00,52.4,51.0,30.17,NW,325,0.0,0.0,96,0.00,,,0.07,weatherlink.com 1.10,2013-06-04 04:06:00,
2013-06-04 00:21:00,52.0,51.0,30.18,NW,325,0.0,0.0,96,0.00,,,0.07,weatherlink.com 1.10,2013-06-04 04:21:00,
2013-06-04 00:36:00,52.4,51.0,30.17,NW,325,0.0,0.0,96,0.00,,,0.07,weatherlink.com 1.10,2013-06-04 04:36:00,
2013-06-04 00:51:00,52.7,52.0,30.17,NW,325,0.0,0.0,97,0.00,,,0.00,weatherlink.com 1.10,2013-06-04 04:51:00,
2013-06-04 01:06:00,52.6,52.0,30.17,NW,325,0.0,0.0,96,0.00,,,0.00,weatherlink.com 1.10,2013-06-04 05:06:00,
2013-06-04 01:21:00,52.4,51.0,30.17,NW,325,0.0,0.0,96,0.00,,,0.00,weatherlink.com 1.10,2013-06-04 05:21:00,
2013-06-04 01:36:00,52.0,51.0,30.17,NW,325,0.0,0.0,96,0.00,,,0.00,weatherlink.com 1.10,2013-06-04 05:36:00,
2013-06-04 01:51:00,51.5,50.0,30.17,NW,325,0.0,0.0,96,0.00,,,0.00,weatherlink.com 1.10,2013-06-04 05:51:00,
2013-06-04 02:06:00,51.9,51.0,30.17,NW,325,0.0,0.0,97,0.00,,,0.00,weatherlink.com 1.10,2013-06-04 06:06:00,
2013-06-04 02:36:00,54.3,54.0,30.16,NW,325,0.0,0.0,97,0.00,,,0.00,weatherlink.com 1.10,2013-06-04 06:36:00,
2013-06-04 02:51:00,53.8,53.0,30.17,NW,325,0.0,0.0,97,0.00,,,0.00,weatherlink.com 1.10,2013-06-04 06:51:00,
2013-06-04 03:06:00,53.6,53.0,30.16,NW,325,0.0,0.0,97,0.00,,,0.00,weatherlink.com 1.10,2013-06-04 07:06:00,
2013-06-04 03:21:00,54.2,53.0,30.16,NW,325,0.0,0.0,97,0.00,,,0.00,weatherlink.com 1.10,2013-06-04 07:21:00,
2013-06-04 03:36:00,54.4,54.0,30.16,NW,325,0.0,0.0,97,0.00,,,0.00,weatherlink.com 1.10,2013-06-04 07:36:00,
2013-06-04 03:52:00,54.4,54.0,30.17,NW,325,0.0,0.0,97,0.00,,,0.00,weatherlink.com 1.10,2013-06-04 07:52:00,
2013-06-04 04:06:00,54.4,54.0,30.17,NW,325,0.0,0.0,97,0.00,,,0.00,weatherlink.com 1.10,2013-06-04 08:06:00,
2013-06-04 04:21:00,54.2,53.0,30.18,NNW,329,0.0,3.0,97,0.00,,,0.00,weatherlink.com 1.10,2013-06-04 08:21:00,
2013-06-04 04:36:00,54.0,53.0,30.18,NNW,332,0.0,2.0,97,0.00,,,0.00,weatherlink.com 1.10,2013-06-04 08:36:00,
2013-06-04 04:52:00,53.9,53.0,30.18,NNW,332,0.0,1.0,97,0.00,,,0.00,weatherlink.com 1.10,2013-06-04 08:52:00,
2013-06-04 05:07:00,53.8,53.0,30.19,NW,323,0.0,4.0,97,0.00,,,0.00,weatherlink.com 1.10,2013-06-04 09:07:00,
2013-06-04 05:22:00,53.7,53.0,30.19,NW,323,0.0,1.0,97,0.00,,,0.00,weatherlink.com 1.10,2013-06-04 09:22:00,
2013-06-04 05:37:00,53.8,53.0,30.20,NW,323,0.0,0.0,97,0.00,,,0.00,weatherlink.com 1.10,2013-06-04 09:37:00,
2013-06-04 05:52:00,53.5,53.0,30.20,NW,323,0.0,1.0,97,0.00,,,0.00,weatherlink.com 1.10,2013-06-04 09:52:00,
2013-06-04 06:07:00,53.0,52.0,30.20,NW,323,0.0,0.0,97,0.00,,,0.00,weatherlink.com 1.10,2013-06-04 10:07:00,
2013-06-04 06:22:00,52.1,51.0,30.20,NW,323,0.0,0.0,96,0.00,,,0.00,weatherlink.com 1.10,2013-06-04 10:22:00,
2013-06-04 06:37:00,51.9,51.0,30.20,NW,323,0.0,0.0,97,0.01,,,0.01,weatherlink.com 1.10,2013-06-04 10:37:00,
2013-06-04 06:52:00,52.3,52.0,30.21,NW,323,0.0,0.0,97,0.01,,,0.01,weatherlink.com 1.10,2013-06-04 10:52:00,
2013-06-04 07:07:00,52.8,52.0,30.21,NW,323,0.0,0.0,97,0.01,,,0.01,weatherlink.com 1.10,2013-06-04 11:07:00,
2013-06-04 07:22:00,53.0,52.0,30.21,ESE,122,0.0,0.0,97,0.01,,,0.01,weatherlink.com 1.10,2013-06-04 11:22:00,
2013-06-04 07:37:00,53.2,52.0,30.22,ESE,122,0.0,1.0,97,0.00,,,0.01,weatherlink.com 1.10,2013-06-04 11:37:00,
2013-06-04 07:52:00,53.5,53.0,30.22,ESE,122,0.0,0.0,97,0.00,,,0.01,weatherlink.com 1.10,2013-06-04 11:52:00,
2013-06-04 08:07:00,53.9,53.0,30.23,NNE,24,0.0,1.0,97,0.00,,,0.01,weatherlink.com 1.10,2013-06-04 12:07:00,
2013-06-04 08:22:00,54.4,54.0,30.23,NNW,342,0.0,1.0,97,0.00,,,0.01,weatherlink.com 1.10,2013-06-04 12:22:00,
2013-06-04 08:37:00,55.4,54.0,30.23,NNW,342,0.0,0.0,96,0.00,,,0.01,weatherlink.com 1.10,2013-06-04 12:37:00,
2013-06-04 08:52:00,57.3,55.0,30.24,North,350,0.0,1.0,93,0.00,,,0.01,weatherlink.com 1.10,2013-06-04 12:52:00,
2013-06-04 09:07:00,59.0,55.0,30.24,NNW,337,0.0,4.0,86,0.00,,,0.01,weatherlink.com 1.10,2013-06-04 13:07:00,
2013-06-04 09:22:00,60.5,55.0,30.25,NNW,346,4.0,5.0,81,0.00,,,0.01,weatherlink.com 1.10,2013-06-04 13:22:00,
2013-06-04 09:37:00,60.9,54.0,30.25,NNW,347,2.0,5.0,79,0.00,,,0.01,weatherlink.com 1.10,2013-06-04 13:37:00,
2013-06-04 09:52:00,61.6,54.0,30.25,NNW,344,3.0,5.0,77,0.00,,,0.01,weatherlink.com 1.10,2013-06-04 13:52:00,
2013-06-04 10:07:00,61.9,54.0,30.26,NW,325,0.0,4.0,76,0.00,,,0.01,weatherlink.com 1.10,2013-06-04 14:07:00,
2013-06-04 10:22:00,62.9,53.0,30.25,NW,324,0.0,5.0,71,0.00,,,0.01,weatherlink.com 1.10,2013-06-04 14:22:00,
2013-06-04 10:37:00,63.9,54.0,30.26,NNW,341,4.0,5.0,70,0.00,,,0.01,weatherlink.com 1.10,2013-06-04 14:37:00,
2013-06-04 10:53:00,64.1,54.0,30.26,NW,323,5.0,7.0,69,0.00,,,0.01,weatherlink.com 1.10,2013-06-04 14:53:00,
2013-06-04 11:07:00,65.0,53.0,30.25,NW,309,0.0,7.0,65,0.00,,,0.01,weatherlink.com 1.10,2013-06-04 15:07:00,
2013-06-04 11:22:00,65.3,53.0,30.25,NW,324,4.0,6.0,64,0.00,,,0.01,weatherlink.com 1.10,2013-06-04 15:22:00,
2013-06-04 11:37:00,65.2,53.0,30.25,NNW,333,2.0,6.0,65,0.00,,,0.01,weatherlink.com 1.10,2013-06-04 15:37:00,
2013-06-04 11:53:00,66.0,53.0,30.26,North,360,0.0,3.0,63,0.00,,,0.01,weatherlink.com 1.10,2013-06-04 15:53:00,
2013-06-04 12:08:00,64.7,54.0,30.25,SW,236,0.0,6.0,68,0.00,,,0.01,weatherlink.com 1.10,2013-06-04 16:08:00,
2013-06-04 12:23:00,65.0,53.0,30.26,NNW,327,0.0,4.0,65,0.00,,,0.01,weatherlink.com 1.10,2013-06-04 16:23:00,
2013-06-04 12:38:00,66.5,52.0,30.25,North,350,0.0,2.0,61,0.00,,,0.01,weatherlink.com 1.10,2013-06-04 16:38:00,
2013-06-04 12:53:00,68.7,52.0,30.25,NW,320,0.0,5.0,55,0.00,,,0.01,weatherlink.com 1.10,2013-06-04 16:53:00,
2013-06-04 13:08:00,69.0,54.0,30.25,NNW,347,0.0,6.0,59,0.00,,,0.01,weatherlink.com 1.10,2013-06-04 17:08:00,
2013-06-04 13:23:00,67.6,52.0,30.25,WSW,253,0.0,4.0,58,0.00,,,0.01,weatherlink.com 1.10,2013-06-04 17:23:00,
2013-06-04 13:38:00,67.4,54.0,30.24,North,355,5.0,8.0,62,0.00,,,0.01,weatherlink.com 1.10,2013-06-04 17:38:00,
2013-06-04 13:53:00,68.6,53.0,30.24,NNW,330,0.0,6.0,57,0.00,,,0.01,weatherlink.com 1.10,2013-06-04 17:53:00,
2013-06-04 14:08:00,68.2,54.0,30.24,NNW,339,0.0,3.0,60,0.00,,,0.01,weatherlink.com 1.10,2013-06-04 18:08:00,
2013-06-04 14:23:00,69.0,54.0,30.24,WNW,288,0.0,1.0,60,0.00,,,0.01,weatherlink.com 1.10,2013-06-04 18:23:00,
2013-06-04 14:38:00,70.3,55.0,30.24,WSW,238,1.0,6.0,59,0.00,,,0.01,weatherlink.com 1.10,2013-06-04 18:38:00,
2013-06-04 14:53:00,68.4,54.0,30.24,ESE,114,0.0,7.0,60,0.00,,,0.01,weatherlink.com 1.10,2013-06-04 18:53:00,
2013-06-04 15:08:00,68.6,54.0,30.23,East,99,0.0,10.0,61,0.00,,,0.01,weatherlink.com 1.10,2013-06-04 19:08:00,
2013-06-04 15:23:00,69.0,55.0,30.23,SSE,163,0.0,8.0,62,0.00,,,0.01,weatherlink.com 1.10,2013-06-04 19:23:00,
2013-06-04 15:38:00,68.5,55.0,30.23,ESE,117,2.0,8.0,62,0.00,,,0.01,weatherlink.com 1.10,2013-06-04 19:38:00,
2013-06-04 15:53:00,67.9,55.0,30.22,ESE,121,0.0,2.0,64,0.00,,,0.01,weatherlink.com 1.10,2013-06-04 19:53:00,
2013-06-04 16:08:00,69.7,54.0,30.22,NNW,338,0.0,2.0,58,0.00,,,0.01,weatherlink.com 1.10,2013-06-04 20:08:00,
2013-06-04 16:23:00,71.6,55.0,30.22,WSW,238,3.0,5.0,56,0.00,,,0.01,weatherlink.com 1.10,2013-06-04 20:23:00,
2013-06-04 16:53:00,73.9,57.0,30.21,NNW,334,0.0,3.0,55,0.00,,,0.01,weatherlink.com 1.10,2013-06-04 20:53:00,
2013-06-04 17:08:00,72.4,55.0,30.20,NW,304,0.0,6.0,54,0.00,,,0.01,weatherlink.com 1.10,2013-06-04 21:08:00,
2013-06-04 17:23:00,71.9,56.0,30.20,NNW,334,3.0,4.0,58,0.00,,,0.01,weatherlink.com 1.10,2013-06-04 21:23:00,
2013-06-04 17:38:00,72.3,55.0,30.20,ESE,117,0.0,2.0,55,0.00,,,0.01,weatherlink.com 1.10,2013-06-04 21:38:00,
2013-06-04 17:53:00,71.3,55.0,30.20,NW,321,0.0,4.0,56,0.00,,,0.01,weatherlink.com 1.10,2013-06-04 21:53:00,
2013-06-04 18:08:00,70.2,55.0,30.20,NW,311,0.0,0.0,59,0.00,,,0.01,weatherlink.com 1.10,2013-06-04 22:08:00,
2013-06-04 18:23:00,69.9,56.0,30.20,NW,311,0.0,0.0,61,0.00,,,0.01,weatherlink.com 1.10,2013-06-04 22:23:00,
2013-06-04 18:38:00,69.9,59.0,30.20,NW,311,0.0,0.0,68,0.00,,,0.01,weatherlink.com 1.10,2013-06-04 22:38:00,
2013-06-04 18:53:00,69.3,60.0,30.20,NW,311,0.0,0.0,72,0.00,,,0.01,weatherlink.com 1.10,2013-06-04 22:53:00,
2013-06-04 19:08:00,69.8,59.0,30.20,NW,311,0.0,0.0,69,0.00,,,0.01,weatherlink.com 1.10,2013-06-04 23:08:00,
2013-06-04 19:23:00,68.3,59.0,30.21,NW,311,0.0,0.0,72,0.00,,,0.01,weatherlink.com 1.10,2013-06-04 23:23:00,
2013-06-04 19:38:00,68.0,57.0,30.21,NW,311,0.0,0.0,67,0.00,,,0.01,weatherlink.com 1.10,2013-06-04 23:38:00,
2013-06-04 19:53:00,67.6,57.0,30.21,NW,311,2.0,3.0,69,0.00,,,0.01,weatherlink.com 1.10,2013-06-04 23:53:00,
2013-06-04 20:08:00,67.4,57.0,30.21,WNW,301,0.0,1.0,70,0.00,,,0.01,weatherlink.com 1.10,2013-06-05 00:08:00,
2013-06-04 20:23:00,66.2,57.0,30.22,WNW,301,0.0,0.0,71,0.00,,,0.01,weatherlink.com 1.10,2013-06-05 00:23:00,
2013-06-04 20:38:00,64.1,55.0,30.22,WNW,301,0.0,0.0,73,0.00,,,0.01,weatherlink.com 1.10,2013-06-05 00:38:00,
2013-06-04 20:53:00,62.3,55.0,30.22,WNW,301,0.0,0.0,78,0.00,,,0.01,weatherlink.com 1.10,2013-06-05 00:53:00,
2013-06-04 21:08:00,61.3,55.0,30.22,WNW,301,0.0,0.0,80,0.00,,,0.01,weatherlink.com 1.10,2013-06-05 01:08:00,
2013-06-04 21:23:00,60.3,55.0,30.23,WNW,301,0.0,0.0,82,0.00,,,0.01,weatherlink.com 1.10,2013-06-05 01:23:00,
2013-06-04 21:38:00,59.5,54.0,30.24,WNW,301,0.0,0.0,83,0.00,,,0.01,weatherlink.com 1.10,2013-06-05 01:38:00,
2013-06-04 21:53:00,58.5,54.0,30.24,WNW,301,0.0,0.0,85,0.00,,,0.01,weatherlink.com 1.10,2013-06-05 01:53:00,
2013-06-04 22:08:00,57.6,54.0,30.24,WNW,301,0.0,0.0,87,0.00,,,0.01,weatherlink.com 1.10,2013-06-05 02:08:00,
2013-06-04 22:23:00,56.9,54.0,30.25,WNW,301,0.0,0.0,89,0.00,,,0.01,weatherlink.com 1.10,2013-06-05 02:23:00,
2013-06-04 22:38:00,56.3,54.0,30.26,WNW,301,0.0,0.0,90,0.00,,,0.01,weatherlink.com 1.10,2013-06-05 02:38:00,
2013-06-04 22:53:00,56.3,54.0,30.25,WNW,301,0.0,0.0,92,0.00,,,0.01,weatherlink.com 1.10,2013-06-05 02:53:00,
2013-06-04 23:08:00,56.0,54.0,30.25,WNW,301,0.0,0.0,91,0.00,,,0.01,weatherlink.com 1.10,2013-06-05 03:08:00,
2013-06-04 23:23:00,55.7,53.0,30.25,WNW,301,0.0,0.0,91,0.00,,,0.01,weatherlink.com 1.10,2013-06-05 03:23:00,
2013-06-04 23:38:00,55.1,53.0,30.25,WNW,301,0.0,0.0,91,0.00,,,0.01,weatherlink.com 1.10,2013-06-05 03:38:00,
2013-06-04 23:53:00,55.0,53.0,30.25,WNW,301,0.0,0.0,92,0.00,,,0.01,weatherlink.com 1.10,2013-06-05 03:53:00,